Time;durP1;ratioP1;P1;durP2;ratioP2;P2;SDS_P1;SDS_P2;PMS_P1;PMS_P2;Temp;Humidity;BMP_temperature;BMP_pressure;BME280_temperature;BME280_humidity;BME280_pressure;Samples;Min_cycle;Max_cycle;Signal;HPM_P1;HPM_P2
2022/10/31 00:00:08;;;;;;;16.23;8.52;;;16.60;99.90;;;;;;5004913;28;20022;-71
2022/10/31 00:02:38;;;;;;;19.15;8.40;;;16.60;99.90;;;;;;5007261;28;20014;-71
2022/10/31 00:05:04;;;;;;;22.10;9.57;;;16.60;99.90;;;;;;5001280;28;20026;-72
2022/10/31 00:07:31;;;;;;;15.90;9.20;;;16.60;99.90;;;;;;5003809;28;20113;-70
2022/10/31 00:09:59;;;;;;;22.73;9.95;;;16.60;99.90;;;;;;5007409;28;20033;-72
2022/10/31 00:12:26;;;;;;;22.02;10.02;;;16.70;99.90;;;;;;5018935;28;20030;-73
2022/10/31 00:14:51;;;;;;;17.60;8.85;;;16.60;99.90;;;;;;5012236;28;20027;-71
2022/10/31 00:17:17;;;;;;;19.80;10.13;;;16.60;99.90;;;;;;5028708;28;20034;-71
2022/10/31 00:19:45;;;;;;;15.57;9.43;;;16.60;99.90;;;;;;5011711;28;20026;-71
2022/10/31 00:22:13;;;;;;;19.52;9.98;;;16.60;99.90;;;;;;5001667;28;20057;-71
2022/10/31 00:24:39;;;;;;;21.58;10.80;;;16.60;99.90;;;;;;5006210;28;20017;-71
2022/10/31 00:27:04;;;;;;;20.73;10.18;;;16.60;99.90;;;;;;5011118;28;20034;-71
2022/10/31 00:29:32;;;;;;;17.10;10.13;;;16.60;99.90;;;;;;5003573;28;20120;-70
2022/10/31 00:31:58;;;;;;;17.88;9.60;;;16.60;99.90;;;;;;5007868;28;20362;-71
2022/10/31 00:34:23;;;;;;;23.40;9.57;;;16.50;99.90;;;;;;5006812;28;20026;-71
2022/10/31 00:36:49;;;;;;;22.27;9.43;;;16.50;99.90;;;;;;5011981;28;20047;-72
2022/10/31 00:39:17;;;;;;;24.23;9.27;;;16.50;99.90;;;;;;5007993;28;20084;-73
2022/10/31 00:41:42;;;;;;;18.92;8.30;;;16.40;99.90;;;;;;5018685;28;20049;-71
2022/10/31 00:44:08;;;;;;;17.05;8.43;;;16.40;99.90;;;;;;5003699;28;20042;-71
2022/10/31 00:46:33;;;;;;;18.65;7.75;;;16.40;99.90;;;;;;5004897;28;20101;-72
2022/10/31 00:48:59;;;;;;;20.35;8.45;;;16.30;99.90;;;;;;5004935;28;20027;-72
2022/10/31 00:51:25;;;;;;;18.23;8.52;;;16.30;99.90;;;;;;5003885;28;20104;-71
2022/10/31 00:53:50;;;;;;;12.80;7.82;;;16.30;99.90;;;;;;5008573;28;20044;-71
2022/10/31 00:56:16;;;;;;;17.83;8.60;;;16.30;99.90;;;;;;5005916;28;20085;-71
2022/10/31 00:58:41;;;;;;;21.05;8.35;;;16.40;99.90;;;;;;5005255;28;20038;-72
2022/10/31 01:01:12;;;;;;;19.35;7.68;;;16.40;99.90;;;;;;5004981;28;20036;-72
2022/10/31 01:03:40;;;;;;;13.32;7.53;;;16.40;99.90;;;;;;5002007;28;20030;-71
2022/10/31 01:06:11;;;;;;;16.52;8.45;;;16.40;99.90;;;;;;5008331;28;20037;-71
2022/10/31 01:08:40;;;;;;;20.42;9.27;;;16.40;99.90;;;;;;5002369;28;20109;-71
2022/10/31 01:11:12;;;;;;;16.30;8.25;;;16.40;99.90;;;;;;5005709;28;20058;-73
2022/10/31 01:13:40;;;;;;;13.03;7.73;;;16.40;99.90;;;;;;5001007;28;20105;-72
2022/10/31 01:16:08;;;;;;;18.13;8.18;;;16.30;99.90;;;;;;5019914;28;20257;-71
2022/10/31 01:18:36;;;;;;;22.50;8.32;;;16.30;99.90;;;;;;4998457;28;20021;-72
2022/10/31 01:21:14;;;;;;;16.98;8.02;;;16.30;99.90;;;;;;5001505;28;20079;-72
2022/10/31 01:23:42;;;;;;;17.08;8.15;;;16.30;99.90;;;;;;5004036;28;20055;-71
2022/10/31 01:26:21;;;;;;;24.27;8.30;;;16.20;99.90;;;;;;5005545;28;20066;-72
2022/10/31 01:28:49;;;;;;;19.70;8.32;;;16.20;99.90;;;;;;5007537;28;20045;-72
2022/10/31 01:31:17;;;;;;;18.30;8.70;;;16.10;99.90;;;;;;5007829;28;20023;-71
2022/10/31 01:33:45;;;;;;;14.73;8.32;;;16.10;99.90;;;;;;5001130;28;20107;-71
2022/10/31 01:36:18;;;;;;;17.42;8.48;;;16.10;99.90;;;;;;5004717;28;20133;-72
2022/10/31 01:38:44;;;;;;;17.20;8.38;;;16.00;99.90;;;;;;5001748;28;20629;-72
2022/10/31 01:41:12;;;;;;;21.63;8.57;;;16.00;99.90;;;;;;4999879;28;20033;-73
2022/10/31 01:43:48;;;;;;;20.17;8.40;;;15.90;99.90;;;;;;5004530;28;20048;-72
2022/10/31 01:46:17;;;;;;;17.67;7.90;;;15.90;99.90;;;;;;4999367;28;20030;-72
2022/10/31 01:48:45;;;;;;;16.30;7.85;;;15.90;99.90;;;;;;5006902;28;20096;-71
2022/10/31 01:51:14;;;;;;;13.65;8.05;;;15.80;99.90;;;;;;5003933;28;20021;-72
2022/10/31 01:53:42;;;;;;;14.18;8.02;;;15.70;99.90;;;;;;5004322;28;20045;-72
2022/10/31 01:56:10;;;;;;;15.57;7.25;;;15.60;99.90;;;;;;5003061;28;20038;-71
2022/10/31 01:58:38;;;;;;;16.50;8.27;;;15.60;99.90;;;;;;5004235;28;20031;-71
2022/10/31 02:01:04;;;;;;;17.63;8.10;;;15.50;99.90;;;;;;5006155;28;20034;-71
2022/10/31 02:03:31;;;;;;;18.05;7.60;;;15.40;99.90;;;;;;5000735;28;20040;-73
2022/10/31 02:05:59;;;;;;;17.30;8.27;;;15.40;99.90;;;;;;5000875;28;20077;-72
2022/10/31 02:08:28;;;;;;;19.40;8.00;;;15.40;99.90;;;;;;5003492;28;20034;-72
2022/10/31 02:10:58;;;;;;;13.93;8.02;;;15.30;99.90;;;;;;5018493;28;20064;-71
2022/10/31 02:13:23;;;;;;;14.32;7.35;;;15.30;99.90;;;;;;5004738;28;20366;-71
2022/10/31 02:15:58;;;;;;;11.77;7.35;;;15.30;99.90;;;;;;5014322;28;20042;-71
2022/10/31 02:18:26;;;;;;;16.15;7.43;;;15.20;99.90;;;;;;4997349;28;20034;-72
2022/10/31 02:21:19;;;;;;;18.40;7.35;;;15.10;99.90;;;;;;5006450;28;20029;-72
2022/10/31 02:24:08;;;;;;;19.93;8.50;;;15.10;99.90;;;;;;5023666;28;20447;-71
2022/10/31 02:26:52;;;;;;;14.85;8.13;;;15.10;99.90;;;;;;5003237;28;20018;-72
2022/10/31 02:29:36;;;;;;;17.80;8.57;;;15.00;99.90;;;;;;5003939;28;20053;-71
2022/10/31 02:32:07;;;;;;;21.10;7.60;;;14.80;99.90;;;;;;5005405;28;20038;-71
2022/10/31 02:34:44;;;;;;;18.58;8.05;;;14.80;99.90;;;;;;5007302;28;20102;-71
2022/10/31 02:37:19;;;;;;;16.45;8.15;;;14.80;99.90;;;;;;5009053;28;20088;-71
2022/10/31 02:39:50;;;;;;;13.63;7.65;;;14.80;99.90;;;;;;5005070;28;20046;-71
2022/10/31 02:42:16;;;;;;;20.92;8.52;;;14.80;99.90;;;;;;5007532;28;20060;-72
2022/10/31 02:45:07;;;;;;;18.13;8.15;;;14.80;99.90;;;;;;5004045;28;20026;-71
2022/10/31 02:47:40;;;;;;;16.45;7.32;;;14.80;99.90;;;;;;5018127;28;20021;-71
2022/10/31 02:50:27;;;;;;;17.70;7.70;;;14.70;99.90;;;;;;5000590;28;20034;-71
2022/10/31 02:52:55;;;;;;;17.27;7.95;;;14.70;99.90;;;;;;5007146;28;20034;-71
2022/10/31 02:55:26;;;;;;;14.32;7.05;;;14.70;99.90;;;;;;5003835;28;20030;-71
2022/10/31 02:58:07;;;;;;;19.10;8.07;;;14.60;99.90;;;;;;5002548;28;20097;-71
2022/10/31 03:00:48;;;;;;;11.65;7.35;;;14.60;99.90;;;;;;5003531;28;20036;-72
2022/10/31 03:03:46;;;;;;;17.63;7.60;;;14.60;99.90;;;;;;5006881;28;20060;-71
2022/10/31 03:06:23;;;;;;;18.00;7.78;;;14.50;99.90;;;;;;5004155;28;20426;-71
2022/10/31 03:09:12;;;;;;;16.17;7.80;;;14.50;99.90;;;;;;5006553;28;20018;-72
2022/10/31 03:12:15;;;;;;;15.20;6.97;;;14.50;99.90;;;;;;5007889;28;20034;-72
2022/10/31 03:14:47;;;;;;;17.52;7.05;;;14.50;99.90;;;;;;5006996;28;20033;-72
2022/10/31 03:17:31;;;;;;;18.85;8.60;;;14.40;99.90;;;;;;5010617;28;20034;-71
2022/10/31 03:19:58;;;;;;;;;;;14.40;99.90;;;;;;5019770;28;20039;-76
2022/10/31 03:22:26;;;;;;;12.25;7.88;;;14.40;99.90;;;;;;5003529;28;19909;-72
2022/10/31 03:24:55;;;;;;;13.18;7.25;;;14.30;99.90;;;;;;5006030;28;20120;-71
2022/10/31 03:27:26;;;;;;;21.55;7.93;;;14.30;99.90;;;;;;5006821;28;20041;-73
2022/10/31 03:29:55;;;;;;;15.93;8.80;;;14.30;99.90;;;;;;5004381;28;20029;-71
2022/10/31 03:32:31;;;;;;;15.55;8.25;;;14.20;99.90;;;;;;5001440;28;20020;-73
2022/10/31 03:34:59;;;;;;;16.95;7.80;;;14.30;99.90;;;;;;5002031;28;20036;-71
2022/10/31 03:37:29;;;;;;;16.35;7.75;;;14.30;99.90;;;;;;5007555;28;20030;-71
2022/10/31 03:39:58;;;;;;;18.30;9.23;;;14.20;99.90;;;;;;5007291;28;20037;-71
2022/10/31 03:42:29;;;;;;;20.50;7.35;;;14.20;99.90;;;;;;5003815;28;20324;-71
2022/10/31 03:45:06;;;;;;;15.15;7.80;;;14.10;99.90;;;;;;5015385;28;20023;-71
2022/10/31 03:47:33;;;;;;;18.08;8.30;;;14.10;99.90;;;;;;4999721;28;20022;-72
2022/10/31 03:49:59;;;;;;;17.65;8.90;;;14.00;99.90;;;;;;5007071;28;20026;-72
2022/10/31 03:52:42;;;;;;;16.30;8.52;;;14.10;99.90;;;;;;5006374;28;20359;-72
2022/10/31 03:55:19;;;;;;;;;;;14.00;99.90;;;;;;5008902;28;20547;-71
2022/10/31 03:58:10;;;;;;;20.52;10.13;;;14.00;99.90;;;;;;5007356;28;19916;-70
2022/10/31 04:00:40;;;;;;;17.30;8.55;;;13.90;99.90;;;;;;5005783;28;20120;-72
2022/10/31 04:03:11;;;;;;;16.08;8.65;;;13.90;99.90;;;;;;5002621;28;20034;-72
2022/10/31 04:05:37;;;;;;;14.68;8.63;;;13.90;99.90;;;;;;5003721;28;20023;-70
2022/10/31 04:08:08;;;;;;;19.17;9.07;;;13.80;99.90;;;;;;5003805;28;20041;-72
2022/10/31 04:10:38;;;;;;;18.67;8.55;;;13.80;99.90;;;;;;5003300;28;20018;-71
2022/10/31 04:13:08;;;;;;;16.15;8.13;;;13.70;99.90;;;;;;5005046;28;20137;-71
2022/10/31 04:15:36;;;;;;;18.75;9.70;;;13.70;99.90;;;;;;5002164;28;20045;-71
2022/10/31 04:18:04;;;;;;;21.80;9.90;;;13.70;99.90;;;;;;5006847;28;20076;-71
2022/10/31 04:20:38;;;;;;;20.10;10.63;;;13.70;99.90;;;;;;5012046;28;20100;-72
2022/10/31 04:23:10;;;;;;;19.60;10.50;;;13.70;99.90;;;;;;5003537;28;20042;-72
2022/10/31 04:25:36;;;;;;;18.30;9.77;;;13.70;99.90;;;;;;5004107;28;20022;-71
2022/10/31 04:28:01;;;;;;;17.90;10.23;;;13.70;99.90;;;;;;5003802;28;20092;-72
2022/10/31 04:30:27;;;;;;;22.73;9.63;;;13.70;99.90;;;;;;5004350;28;20636;-71
2022/10/31 04:32:55;;;;;;;15.90;9.77;;;13.70;99.90;;;;;;5007476;28;20084;-72
2022/10/31 04:35:20;;;;;;;21.98;9.77;;;13.70;99.90;;;;;;5003902;28;20030;-71
2022/10/31 04:37:46;;;;;;;21.27;9.50;;;13.70;99.90;;;;;;5005302;28;20092;-73
2022/10/31 04:40:14;;;;;;;19.38;9.32;;;13.60;99.90;;;;;;5006080;28;20022;-72
2022/10/31 04:42:42;;;;;;;26.00;10.13;;;13.70;99.90;;;;;;5004498;28;20479;-71
2022/10/31 04:45:13;;;;;;;21.40;9.75;;;13.70;99.90;;;;;;5003352;28;20062;-74
2022/10/31 04:47:38;;;;;;;22.27;10.05;;;13.60;99.90;;;;;;5000419;28;20026;-71
2022/10/31 04:50:05;;;;;;;19.73;9.75;;;13.60;99.90;;;;;;4999300;28;20034;-71
2022/10/31 04:52:30;;;;;;;18.90;9.52;;;13.60;99.90;;;;;;5008576;28;20030;-73
2022/10/31 04:54:58;;;;;;;15.88;9.82;;;13.60;99.90;;;;;;4996235;28;20100;-71
2022/10/31 04:57:24;;;;;;;24.00;11.38;;;13.70;99.90;;;;;;5004416;28;20157;-71
2022/10/31 04:59:49;;;;;;;18.67;9.20;;;13.70;99.90;;;;;;5002538;28;20039;-71
2022/10/31 05:02:15;;;;;;;16.20;9.85;;;13.70;99.90;;;;;;5001044;28;20034;-73
2022/10/31 05:04:45;;;;;;;17.65;9.25;;;13.60;99.90;;;;;;5002615;28;20033;-72
2022/10/31 05:07:15;;;;;;;18.80;9.65;;;13.60;99.90;;;;;;5017541;28;20050;-73
2022/10/31 05:09:41;;;;;;;17.85;9.13;;;13.60;99.90;;;;;;5002369;28;20030;-72
2022/10/31 05:12:06;;;;;;;20.15;9.38;;;13.60;99.90;;;;;;5002092;28;20036;-73
2022/10/31 05:14:32;;;;;;;22.77;9.40;;;13.60;99.90;;;;;;5004900;28;20045;-72
2022/10/31 05:17:00;;;;;;;18.58;8.50;;;13.50;99.90;;;;;;5002403;28;20091;-71
2022/10/31 05:19:28;;;;;;;13.88;9.00;;;13.50;99.90;;;;;;5001984;28;20021;-73
2022/10/31 05:21:54;;;;;;;14.23;9.27;;;13.50;99.90;;;;;;5007356;28;20049;-73
2022/10/31 05:24:21;;;;;;;14.90;8.48;;;13.50;99.90;;;;;;5005123;28;20047;-72
2022/10/31 05:26:48;;;;;;;17.50;8.30;;;13.50;99.90;;;;;;5006275;28;20023;-71
2022/10/31 05:29:14;;;;;;;17.77;9.13;;;13.50;99.90;;;;;;5007754;28;20139;-72
2022/10/31 05:31:39;;;;;;;24.67;10.60;;;13.40;99.90;;;;;;4997605;28;20165;-71
2022/10/31 05:34:05;;;;;;;18.20;10.35;;;13.40;99.90;;;;;;5002173;28;20030;-72
2022/10/31 05:36:30;;;;;;;22.60;9.52;;;13.40;99.90;;;;;;5003760;28;20447;-73
2022/10/31 05:38:56;;;;;;;14.20;9.07;;;13.40;99.90;;;;;;5002564;28;20371;-73
2022/10/31 05:41:22;;;;;;;16.15;8.57;;;13.30;99.90;;;;;;5004251;28;20033;-72
2022/10/31 05:43:47;;;;;;;11.95;7.72;;;13.30;99.90;;;;;;5002876;28;20084;-73
2022/10/31 05:46:13;;;;;;;15.50;8.18;;;13.30;99.90;;;;;;5006189;28;20455;-72
2022/10/31 05:48:41;;;;;;;13.88;7.90;;;13.20;99.90;;;;;;5001182;28;20604;-72
2022/10/31 05:51:06;;;;;;;13.85;7.43;;;13.20;99.90;;;;;;5003785;28;20049;-73
2022/10/31 05:53:32;;;;;;;11.65;7.38;;;13.20;99.90;;;;;;5019202;28;20128;-73
2022/10/31 05:55:58;;;;;;;15.50;8.30;;;13.20;99.90;;;;;;5000927;28;20040;-72
2022/10/31 05:58:25;;;;;;;18.13;7.90;;;13.30;99.90;;;;;;4999451;28;20030;-71
2022/10/31 06:00:52;;;;;;;17.75;8.63;;;13.20;99.90;;;;;;4999810;28;20019;-72
2022/10/31 06:03:20;;;;;;;19.38;8.73;;;13.20;99.90;;;;;;5004757;28;20018;-71
2022/10/31 06:05:46;;;;;;;16.85;8.82;;;13.20;99.90;;;;;;5002792;28;20041;-72
2022/10/31 06:08:11;;;;;;;19.23;8.10;;;13.10;99.90;;;;;;5001894;28;20129;-70
2022/10/31 06:10:37;;;;;;;13.10;9.02;;;13.10;99.90;;;;;;5003679;28;20132;-72
2022/10/31 06:13:02;;;;;;;17.13;8.82;;;13.20;99.90;;;;;;5003144;28;20077;-72
2022/10/31 06:15:28;;;;;;;23.15;8.32;;;13.20;99.90;;;;;;4999789;28;20057;-72
2022/10/31 06:18:05;;;;;;;17.25;8.77;;;13.20;99.90;;;;;;5003144;28;20109;-73
2022/10/31 06:20:31;;;;;;;18.17;9.60;;;13.20;99.90;;;;;;5002906;28;20025;-72
2022/10/31 06:22:57;;;;;;;18.02;8.98;;;13.20;99.90;;;;;;5001945;28;20069;-72
2022/10/31 06:25:23;;;;;;;17.17;9.88;;;13.20;99.90;;;;;;5001245;28;20018;-72
2022/10/31 06:27:48;;;;;;;17.75;10.15;;;13.20;99.90;;;;;;5001440;28;20510;-73
2022/10/31 06:30:17;;;;;;;18.38;9.50;;;13.10;99.90;;;;;;4998080;28;20034;-72
2022/10/31 06:32:44;;;;;;;15.95;10.90;;;13.20;99.90;;;;;;5001136;28;20127;-72
2022/10/31 06:35:10;;;;;;;19.80;9.85;;;13.20;99.90;;;;;;4998561;28;20046;-73
2022/10/31 06:37:36;;;;;;;23.50;10.10;;;13.20;99.90;;;;;;5004932;28;20335;-72
2022/10/31 06:40:01;;;;;;;24.92;10.98;;;13.20;99.90;;;;;;5019205;28;20031;-72
2022/10/31 06:42:29;;;;;;;19.00;10.40;;;13.20;99.90;;;;;;5001812;28;20085;-72
2022/10/31 06:44:55;;;;;;;18.25;10.00;;;13.20;99.90;;;;;;5005134;28;20037;-73
2022/10/31 06:47:23;;;;;;;23.75;10.93;;;13.20;99.90;;;;;;5000402;28;20026;-72
2022/10/31 06:49:48;;;;;;;20.88;10.23;;;13.30;99.90;;;;;;5017025;28;20080;-72
2022/10/31 06:52:14;;;;;;;19.75;10.40;;;13.30;99.90;;;;;;5005972;28;20033;-71
2022/10/31 06:54:44;;;;;;;18.42;10.10;;;13.30;99.90;;;;;;5005078;28;20021;-77
2022/10/31 06:57:12;;;;;;;19.98;10.48;;;13.30;99.90;;;;;;5005860;28;20022;-73
2022/10/31 06:59:38;;;;;;;18.95;10.52;;;13.30;99.90;;;;;;5000559;28;20034;-74
2022/10/31 07:02:04;;;;;;;18.08;10.80;;;13.30;99.90;;;;;;5006723;28;20354;-72
2022/10/31 07:04:29;;;;;;;17.42;9.65;;;13.30;99.90;;;;;;5000681;28;20027;-71
2022/10/31 07:06:55;;;;;;;24.85;10.27;;;13.30;99.90;;;;;;5020300;28;20034;-73
2022/10/31 07:09:20;;;;;;;18.08;9.80;;;13.20;99.90;;;;;;4998271;28;20026;-72
2022/10/31 07:11:46;;;;;;;20.77;9.50;;;13.20;99.90;;;;;;5021708;28;20030;-72
2022/10/31 07:14:14;;;;;;;24.33;9.95;;;13.20;99.90;;;;;;5005891;28;20037;-71
2022/10/31 07:16:44;;;;;;;21.70;10.38;;;13.20;99.90;;;;;;5003286;28;20030;-72
2022/10/31 07:19:10;;;;;;;22.30;10.88;;;13.30;99.90;;;;;;5006743;28;20025;-72
2022/10/31 07:21:38;;;;;;;22.52;10.40;;;13.40;99.90;;;;;;5000966;28;20041;-74
2022/10/31 07:24:06;;;;;;;20.15;10.02;;;13.30;99.90;;;;;;5018944;28;20038;-75
2022/10/31 07:26:32;;;;;;;14.63;9.38;;;13.50;99.90;;;;;;5004884;28;20046;-74
2022/10/31 07:28:58;;;;;;;16.35;8.85;;;13.40;99.90;;;;;;5002674;28;20060;-72
2022/10/31 07:31:24;;;;;;;19.55;10.35;;;13.50;99.90;;;;;;5008014;28;20038;-72
2022/10/31 07:33:50;;;;;;;21.20;9.77;;;13.50;99.90;;;;;;5008879;28;20083;-73
2022/10/31 07:36:18;;;;;;;25.15;10.20;;;13.60;99.90;;;;;;5006983;28;20333;-73
2022/10/31 07:38:44;;;;;;;17.50;10.00;;;13.60;99.90;;;;;;5006219;28;20030;-72
2022/10/31 07:41:09;;;;;;;27.05;10.85;;;13.60;99.90;;;;;;5000376;28;20093;-72
2022/10/31 07:43:35;;;;;;;23.65;10.80;;;13.60;99.90;;;;;;5010418;28;20034;-72
2022/10/31 07:46:00;;;;;;;21.60;11.75;;;13.70;99.90;;;;;;5007726;28;20432;-72
2022/10/31 07:48:26;;;;;;;25.58;11.23;;;13.70;99.90;;;;;;5009142;28;20113;-71
2022/10/31 07:50:52;;;;;;;27.50;11.40;;;13.80;99.90;;;;;;5004544;28;20533;-72
2022/10/31 07:53:17;;;;;;;22.92;12.05;;;13.90;99.90;;;;;;5005515;28;20029;-72
2022/10/31 07:55:46;;;;;;;27.55;12.02;;;14.00;99.90;;;;;;5007756;28;20057;-72
2022/10/31 07:58:16;;;;;;;23.83;12.45;;;14.10;99.90;;;;;;5009683;28;20022;-72
2022/10/31 08:00:44;;;;;;;22.30;12.77;;;14.10;99.90;;;;;;5012351;28;20083;-72
2022/10/31 08:03:19;;;;;;;22.77;11.77;;;14.10;99.90;;;;;;5008448;28;20034;-73
2022/10/31 08:05:46;;;;;;;23.80;12.48;;;14.20;99.90;;;;;;5023931;28;20099;-71
2022/10/31 08:08:14;;;;;;;22.73;12.55;;;14.30;99.90;;;;;;5006755;28;20049;-72
2022/10/31 08:10:41;;;;;;;25.75;12.70;;;14.40;99.90;;;;;;5008337;28;20034;-73
2022/10/31 08:13:09;;;;;;;27.70;13.95;;;14.40;99.90;;;;;;5005740;28;20022;-72
2022/10/31 08:15:37;;;;;;;23.63;13.52;;;14.50;99.90;;;;;;5007508;28;20030;-72
2022/10/31 08:18:04;;;;;;;23.75;13.35;;;14.60;99.90;;;;;;5009649;28;20162;-70
2022/10/31 08:20:30;;;;;;;29.40;14.63;;;14.60;99.90;;;;;;5014646;28;20025;-72
2022/10/31 08:22:56;;;;;;;25.10;13.73;;;14.70;99.90;;;;;;5008242;28;20456;-76
2022/10/31 08:25:22;;;;;;;73.10;31.55;;;14.70;99.90;;;;;;5009495;28;20119;-70
2022/10/31 08:27:55;;;;;;;32.85;16.73;;;14.70;99.90;;;;;;5005468;28;20120;-72
2022/10/31 08:30:22;;;;;;;33.97;14.05;;;14.70;99.90;;;;;;5001375;28;20033;-73
2022/10/31 08:32:56;;;;;;;28.77;14.38;;;14.70;99.90;;;;;;5004375;28;20034;-73
2022/10/31 08:35:22;;;;;;;27.23;13.60;;;14.70;99.90;;;;;;5005777;28;20022;-72
2022/10/31 08:37:53;;;;;;;29.75;14.25;;;14.70;99.90;;;;;;5006715;28;20451;-71
2022/10/31 08:40:22;;;;;;;27.58;14.95;;;14.80;99.90;;;;;;5008173;28;20592;-73
2022/10/31 08:42:47;;;;;;;32.30;14.73;;;14.80;99.90;;;;;;5004381;28;20080;-73
2022/10/31 08:45:13;;;;;;;30.08;14.57;;;14.90;99.90;;;;;;5009359;28;20464;-73
2022/10/31 08:47:39;;;;;;;27.95;14.40;;;15.00;99.90;;;;;;5007067;28;20431;-74
2022/10/31 08:50:05;;;;;;;30.35;14.10;;;15.10;99.90;;;;;;5008304;28;20053;-73
2022/10/31 08:52:33;;;;;;;27.00;14.82;;;15.20;99.90;;;;;;5017396;28;20033;-73
2022/10/31 08:55:01;;;;;;;28.75;14.05;;;15.40;99.90;;;;;;5006299;28;20708;-73
2022/10/31 08:57:29;;;;;;;28.63;14.45;;;15.50;99.90;;;;;;5007221;28;20030;-73
2022/10/31 08:59:54;;;;;;;31.15;15.43;;;15.60;99.90;;;;;;5005176;28;20022;-73
2022/10/31 09:02:20;;;;;;;26.48;15.02;;;15.70;99.90;;;;;;5007287;28;20033;-72
2022/10/31 09:04:50;;;;;;;29.35;14.82;;;15.80;99.90;;;;;;5006730;28;20484;-73
2022/10/31 09:07:17;;;;;;;36.63;15.50;;;16.00;99.90;;;;;;5007998;28;20021;-72
2022/10/31 09:09:42;;;;;;;27.30;14.65;;;16.20;99.90;;;;;;4999148;28;20022;-72
2022/10/31 09:12:08;;;;;;;444.50;170.02;;;16.40;99.90;;;;;;5007258;28;20030;-72
2022/10/31 09:14:34;;;;;;;39.75;18.77;;;16.50;99.90;;;;;;5005637;28;20033;-72
2022/10/31 09:16:59;;;;;;;28.77;14.68;;;16.80;99.90;;;;;;5003750;28;20026;-72
2022/10/31 09:19:25;;;;;;;28.42;14.23;;;17.00;99.90;;;;;;5004270;28;20029;-71
2022/10/31 09:21:54;;;;;;;34.42;15.90;;;17.30;99.90;;;;;;5004314;28;20022;-72
2022/10/31 09:24:20;;;;;;;31.67;14.80;;;17.40;99.90;;;;;;5004879;28;20037;-72
2022/10/31 09:26:46;;;;;;;28.40;15.55;;;17.50;99.90;;;;;;4999279;28;20018;-72
2022/10/31 09:29:11;;;;;;;26.95;14.18;;;17.60;99.90;;;;;;4999998;28;20526;-72
2022/10/31 09:31:37;;;;;;;33.88;16.30;;;17.80;99.90;;;;;;5002649;28;20117;-73
2022/10/31 09:34:03;;;;;;;28.75;15.68;;;17.90;99.90;;;;;;5005822;28;20042;-73
2022/10/31 09:36:28;;;;;;;31.60;16.73;;;17.90;99.90;;;;;;5018812;28;20040;-72
2022/10/31 09:38:54;;;;;;;31.42;15.20;;;18.00;99.90;;;;;;5004494;28;20037;-71
2022/10/31 09:41:44;;;;;;;28.77;15.70;;;17.90;99.90;;;;;;5003703;28;20037;-73
2022/10/31 09:44:43;;;;;;;29.95;15.68;;;17.90;99.90;;;;;;5015018;28;20513;-72
2022/10/31 09:47:15;;;;;;;36.60;16.10;;;17.90;99.90;;;;;;5002849;28;20030;-72
2022/10/31 09:49:41;;;;;;;31.73;16.00;;;17.80;99.90;;;;;;5001554;28;20034;-72
2022/10/31 09:52:26;;;;;;;31.85;15.65;;;17.80;99.90;;;;;;5005839;28;20088;-74
2022/10/31 09:55:00;;;;;;;36.13;16.92;;;17.90;99.90;;;;;;4995888;28;20113;-73
2022/10/31 09:57:33;;;;;;;32.83;15.98;;;18.00;99.90;;;;;;5019994;28;20083;-73
2022/10/31 09:59:59;;;;;;;35.00;16.58;;;18.20;99.90;;;;;;5003215;28;20125;-72
2022/10/31 10:02:25;;;;;;;32.58;15.98;;;18.50;99.90;;;;;;5003513;28;20125;-72
2022/10/31 10:04:59;;;;;;;33.78;16.40;;;18.60;99.90;;;;;;5001894;28;20105;-73
2022/10/31 10:07:46;;;;;;;39.15;19.35;;;18.80;99.90;;;;;;5003199;28;20040;-72
2022/10/31 10:10:20;;;;;;;268.05;119.57;;;18.90;99.90;;;;;;5000857;28;20026;-70
2022/10/31 10:13:25;;;;;;;37.63;16.98;;;19.00;99.90;;;;;;5004116;28;20088;-72
2022/10/31 10:16:05;;;;;;;31.55;16.83;;;19.10;99.90;;;;;;4962115;28;20052;-73
2022/10/31 10:18:55;;;;;;;29.95;16.10;;;19.40;99.90;;;;;;5002788;28;20096;-72
2022/10/31 10:22:07;;;;;;;37.97;16.85;;;19.70;99.90;;;;;;5000767;28;20085;-72
2022/10/31 10:24:50;;;;;;;35.78;16.80;;;19.80;99.90;;;;;;4938517;28;20038;-73
2022/10/31 10:27:31;;;;;;;31.85;15.90;;;19.90;99.90;;;;;;5002243;28;20019;-71
2022/10/31 10:30:15;;;;;;;35.47;16.75;;;20.10;99.90;;;;;;5017832;28;20097;-72
2022/10/31 10:32:49;;;;;;;43.03;17.30;;;20.10;99.90;;;;;;5003936;28;20101;-71
2022/10/31 10:35:33;;;;;;;34.30;17.10;;;20.30;99.90;;;;;;5002390;28;20077;-72
2022/10/31 10:38:26;;;;;;;35.63;17.42;;;20.60;99.90;;;;;;5003772;28;20138;-71
2022/10/31 10:40:53;;;;;;;31.45;16.80;;;20.80;99.90;;;;;;5002856;28;20506;-71
2022/10/31 10:43:35;;;;;;;37.67;16.95;;;20.90;99.90;;;;;;5007051;28;20045;-72
2022/10/31 10:49:16;;;;;;;40.50;19.08;;;21.20;99.90;;;;;;5006038;28;20046;-71
2022/10/31 10:52:09;;;;;;;38.78;16.75;;;21.20;99.90;;;;;;5004774;28;20450;-72
2022/10/31 10:54:39;;;;;;;37.35;18.73;;;21.10;99.90;;;;;;5020965;28;20038;-72
2022/10/31 10:57:29;;;;;;;36.03;16.27;;;20.80;99.90;;;;;;5003810;28;20042;-72
2022/10/31 10:59:55;;;;;;;37.22;17.65;;;20.70;99.90;;;;;;5004968;28;20030;-72
2022/10/31 11:02:24;;;;;;;37.63;16.67;;;20.60;99.90;;;;;;5007104;28;20033;-71
2022/10/31 11:04:55;;;;;;;33.70;17.10;;;20.60;99.90;;;;;;5004917;28;20037;-72
2022/10/31 11:07:22;;;;;;;36.25;18.23;;;20.60;99.90;;;;;;5005063;28;20041;-71
2022/10/31 11:09:48;;;;;;;41.42;18.02;;;20.50;99.90;;;;;;5012080;28;20028;-71
2022/10/31 11:12:33;;;;;;;36.50;17.92;;;20.50;99.90;;;;;;5002253;28;20080;-73
2022/10/31 11:15:06;;;;;;;40.80;17.80;;;20.30;99.90;;;;;;5004764;28;20079;-71
2022/10/31 11:17:40;;;;;;;35.15;17.40;;;20.40;99.90;;;;;;5000819;28;20033;-71
2022/10/31 11:20:05;;;;;;;40.25;17.13;;;20.50;99.90;;;;;;5005028;28;20037;-72
2022/10/31 11:22:31;;;;;;;41.38;18.15;;;20.60;99.90;;;;;;5002890;28;20026;-72
2022/10/31 11:24:57;;;;;;;43.25;18.85;;;20.60;99.90;;;;;;5005159;28;20033;-72
2022/10/31 11:27:24;;;;;;;39.05;18.02;;;20.60;99.90;;;;;;5007285;28;20156;-72
2022/10/31 11:29:51;;;;;;;35.65;18.08;;;20.50;99.90;;;;;;5001466;28;20028;-71
2022/10/31 11:32:27;;;;;;;37.85;18.60;;;20.40;99.90;;;;;;5007231;28;20041;-72
2022/10/31 11:34:56;;;;;;;43.95;19.45;;;20.40;99.90;;;;;;5005868;28;20096;-72
2022/10/31 11:37:25;;;;;;;43.65;20.77;;;20.30;99.90;;;;;;5004240;28;20539;-71
2022/10/31 11:39:57;;;;;;;37.47;18.13;;;20.40;99.90;;;;;;5007371;28;20609;-72
2022/10/31 11:42:26;;;;;;;39.88;18.40;;;20.40;99.90;;;;;;5018244;28;20493;-71
2022/10/31 11:44:54;;;;;;;45.05;18.50;;;20.40;99.90;;;;;;5020888;28;20145;-72
2022/10/31 11:47:28;;;;;;;45.13;19.67;;;20.30;99.90;;;;;;5002239;28;20026;-72
2022/10/31 11:49:56;;;;;;;42.53;19.40;;;20.30;99.90;;;;;;5004423;28;20014;-71
2022/10/31 11:52:31;;;;;;;53.35;21.17;;;20.20;99.90;;;;;;5000412;28;20053;-73
2022/10/31 11:55:14;;;;;;;44.63;20.15;;;20.20;99.90;;;;;;5005367;28;20049;-72
2022/10/31 11:57:51;;;;;;;42.70;19.77;;;20.20;99.90;;;;;;5005129;28;20085;-75
2022/10/31 12:00:27;;;;;;;38.33;19.88;;;20.20;99.90;;;;;;5004114;28;20466;-72
2022/10/31 12:03:22;;;;;;;49.65;20.25;;;20.10;99.90;;;;;;5004658;28;20033;-71
2022/10/31 12:06:11;;;;;;;48.38;20.88;;;20.10;99.90;;;;;;5004416;28;20018;-73
2022/10/31 12:08:39;;;;;;;52.38;20.73;;;20.00;99.90;;;;;;5005886;28;20109;-71
2022/10/31 12:11:23;;;;;;;46.75;20.95;;;19.90;99.90;;;;;;5007228;28;20021;-71
2022/10/31 12:14:04;;;;;;;48.55;21.70;;;20.00;99.90;;;;;;5004514;28;20068;-71
2022/10/31 12:16:51;;;;;;;48.67;20.98;;;19.90;99.90;;;;;;5004435;28;20029;-73
2022/10/31 12:19:44;;;;;;;57.58;22.02;;;20.00;99.90;;;;;;5000508;28;20025;-72
2022/10/31 12:22:22;;;;;;;;;;;20.00;99.90;;;;;;5003270;28;20033;-71
2022/10/31 12:24:57;;;;;;;49.50;21.38;;;20.00;99.90;;;;;;5001968;28;20439;-71
2022/10/31 12:27:34;;;;;;;44.25;20.83;;;19.90;99.90;;;;;;5000860;28;20045;-71
2022/10/31 12:30:30;;;;;;;44.15;21.95;;;20.00;99.90;;;;;;5002023;28;20132;-73
2022/10/31 12:33:22;;;;;;;47.30;21.48;;;20.10;99.90;;;;;;5001592;28;20031;-72
2022/10/31 12:36:19;;;;;;;47.88;20.70;;;20.20;99.90;;;;;;5001725;28;20089;-71
2022/10/31 12:39:16;;;;;;;53.50;22.33;;;20.20;99.90;;;;;;5001980;28;20156;-72
2022/10/31 12:41:54;;;;;;;50.00;20.77;;;20.20;99.90;;;;;;5002679;28;20092;-71
2022/10/31 12:44:39;;;;;;;47.08;20.92;;;20.30;99.90;;;;;;5000146;28;20037;-72
2022/10/31 12:47:32;;;;;;;49.28;21.88;;;20.30;99.90;;;;;;5020271;28;20179;-71
2022/10/31 12:50:19;;;;;;;42.40;20.77;;;20.30;99.90;;;;;;5002153;28;20081;-71
2022/10/31 12:52:57;;;;;;;47.85;21.50;;;20.20;99.90;;;;;;5003695;28;20026;-72
2022/10/31 12:55:41;;;;;;;42.80;20.48;;;20.30;99.90;;;;;;5003306;28;20097;-72